createdAt,value
2017-09-06T00:00:24.666Z,60.90
2017-09-06T00:00:57.184Z,61.10
2017-09-06T00:01:29.707Z,61.20
2017-09-06T00:02:02.240Z,61.20
2017-09-06T00:02:34.769Z,61.20
2017-09-06T00:03:07.302Z,61.10
2017-09-06T00:03:39.811Z,61.20
2017-09-06T00:04:12.357Z,61.70
2017-09-06T00:04:44.887Z,61.40
2017-09-06T00:05:17.412Z,61.50
2017-09-06T00:05:49.942Z,61.60
2017-09-06T00:06:22.485Z,61.70
2017-09-06T00:06:55.015Z,61.70
2017-09-06T00:07:27.534Z,61.70
2017-09-06T00:08:00.049Z,61.80
2017-09-06T00:08:32.603Z,61.80
2017-09-06T00:09:05.115Z,61.80
2017-09-06T00:09:37.647Z,61.90
2017-09-06T00:10:10.180Z,61.90
2017-09-06T00:10:42.703Z,62.10
2017-09-06T00:11:15.223Z,62.20
2017-09-06T00:11:47.762Z,62.30
2017-09-06T00:12:20.287Z,62.40
2017-09-06T00:12:52.802Z,62.30
2017-09-06T00:13:25.315Z,62.30
2017-09-06T00:13:57.830Z,63.00
2017-09-06T00:14:30.364Z,62.10
2017-09-06T00:15:02.910Z,62.10
2017-09-06T00:15:35.432Z,62.20
2017-09-06T00:16:07.945Z,62.20
2017-09-06T00:16:40.458Z,62.20
2017-09-06T00:17:13.024Z,62.20
2017-09-06T00:17:45.536Z,62.30
2017-09-06T00:18:18.050Z,62.20
2017-09-06T00:18:50.593Z,62.20
2017-09-06T00:19:23.132Z,62.30
2017-09-06T00:19:55.661Z,62.40
2017-09-06T00:20:28.181Z,62.40
2017-09-06T00:21:00.711Z,62.40
2017-09-06T00:21:33.249Z,62.50
2017-09-06T00:22:05.784Z,62.40
2017-09-06T00:22:38.317Z,62.50
2017-09-06T00:23:10.865Z,62.40
2017-09-06T00:23:43.400Z,62.40
2017-09-06T00:24:15.919Z,62.30
2017-09-06T00:24:48.810Z,62.20
2017-09-06T00:25:21.335Z,61.80
2017-09-06T00:25:53.886Z,61.70
2017-09-06T00:26:26.409Z,61.70
2017-09-06T00:26:58.926Z,61.80
2017-09-06T00:27:31.435Z,61.90
2017-09-06T00:28:03.953Z,62.00
2017-09-06T00:28:36.486Z,62.10
2017-09-06T00:29:09.026Z,62.50
2017-09-06T00:29:41.535Z,62.90
2017-09-06T00:30:14.051Z,62.00
2017-09-06T00:30:46.598Z,61.70
2017-09-06T00:31:19.126Z,61.60
2017-09-06T00:31:51.636Z,61.70
2017-09-06T00:32:24.147Z,61.70
2017-09-06T00:32:56.662Z,61.60
2017-09-06T00:33:29.204Z,61.50
2017-09-06T00:34:01.735Z,61.50
2017-09-06T00:34:34.302Z,61.50
2017-09-06T00:35:06.832Z,61.50
2017-09-06T00:35:39.348Z,61.50
2017-09-06T00:36:11.883Z,62.00
2017-09-06T00:36:44.407Z,61.50
2017-09-06T00:37:16.934Z,61.50
2017-09-06T00:37:49.476Z,61.40
2017-09-06T00:38:22.014Z,61.50
2017-09-06T00:38:54.541Z,61.50
2017-09-06T00:39:27.063Z,61.40
2017-09-06T00:39:59.591Z,61.20
2017-09-06T00:40:32.284Z,61.40
2017-09-06T00:41:04.800Z,61.70
2017-09-06T00:41:37.330Z,60.80
2017-09-06T00:42:09.867Z,60.70
2017-09-06T00:42:42.396Z,60.50
2017-09-06T00:43:14.915Z,60.30
2017-09-06T00:43:47.424Z,60.30
2017-09-06T00:44:20.001Z,60.20
2017-09-06T00:44:52.518Z,59.80
2017-09-06T00:45:25.043Z,60.20
2017-09-06T00:45:57.603Z,60.60
2017-09-06T00:46:30.114Z,60.60
2017-09-06T00:47:02.617Z,61.00
2017-09-06T00:47:35.154Z,60.70
2017-09-06T00:48:07.774Z,60.70
2017-09-06T00:48:40.289Z,60.80
2017-09-06T00:49:12.798Z,60.80
2017-09-06T00:49:45.605Z,60.80
2017-09-06T00:50:18.130Z,60.80
2017-09-06T00:50:50.635Z,61.00
2017-09-06T00:51:23.157Z,61.10
2017-09-06T00:51:55.656Z,60.80
2017-09-06T00:52:28.167Z,60.50
2017-09-06T00:53:00.680Z,60.40
2017-09-06T00:53:33.201Z,60.50
2017-09-06T00:54:05.755Z,60.60
2017-09-06T00:54:38.275Z,60.70
2017-09-06T00:55:10.793Z,60.80
2017-09-06T00:55:43.318Z,60.80
2017-09-06T00:56:15.851Z,60.80
2017-09-06T00:56:48.370Z,60.80
2017-09-06T00:57:20.902Z,60.90
2017-09-06T00:57:53.433Z,60.90
2017-09-06T00:58:25.958Z,61.20
2017-09-06T00:58:58.478Z,61.40
2017-09-06T00:59:30.991Z,61.40
2017-09-06T01:00:03.515Z,61.40
2017-09-06T01:00:36.038Z,61.40
2017-09-06T01:01:08.544Z,61.30
2017-09-06T01:01:41.064Z,61.30
2017-09-06T01:02:13.591Z,61.00
2017-09-06T01:02:46.124Z,61.00
2017-09-06T01:03:18.665Z,61.10
2017-09-06T01:03:51.189Z,61.10
2017-09-06T01:04:23.704Z,62.00
2017-09-06T01:04:56.222Z,61.50
2017-09-06T01:05:28.739Z,61.60
2017-09-06T01:06:01.280Z,61.50
2017-09-06T01:06:33.826Z,61.50
2017-09-06T01:07:06.331Z,61.50
2017-09-06T01:07:38.863Z,61.60
2017-09-06T01:08:11.389Z,61.90
2017-09-06T01:08:43.914Z,61.90
2017-09-06T01:09:16.466Z,62.00
2017-09-06T01:09:49.014Z,62.00
2017-09-06T01:10:21.555Z,62.10
2017-09-06T01:10:54.099Z,62.20
2017-09-06T01:11:27.414Z,62.30
2017-09-06T01:11:59.945Z,62.30
2017-09-06T01:12:32.468Z,62.40
2017-09-06T01:13:05.029Z,62.60
2017-09-06T01:13:37.553Z,63.50
2017-09-06T01:14:10.113Z,63.00
2017-09-06T01:14:42.655Z,63.10
2017-09-06T01:15:15.185Z,63.20
2017-09-06T01:15:47.740Z,63.30
2017-09-06T01:16:20.305Z,63.40
2017-09-06T01:16:52.860Z,63.50
2017-09-06T01:17:25.406Z,63.50
2017-09-06T01:17:57.919Z,63.50
2017-09-06T01:18:30.425Z,63.50
2017-09-06T01:19:02.943Z,63.50
2017-09-06T01:19:35.472Z,63.70
2017-09-06T01:20:08.000Z,63.70
2017-09-06T01:20:40.501Z,63.70
2017-09-06T01:21:13.003Z,63.60
2017-09-06T01:21:45.556Z,63.60
2017-09-06T01:22:18.096Z,63.80
2017-09-06T01:22:50.649Z,63.60
2017-09-06T01:23:23.195Z,63.70
2017-09-06T01:23:55.728Z,63.80
2017-09-06T01:24:28.264Z,63.80
2017-09-06T01:25:00.779Z,63.60
2017-09-06T01:25:33.310Z,63.60
2017-09-06T01:26:05.845Z,64.50
2017-09-06T01:26:38.393Z,63.50
2017-09-06T01:27:10.903Z,63.40
2017-09-06T01:27:43.479Z,63.40
2017-09-06T01:28:16.010Z,63.40
2017-09-06T01:28:48.517Z,63.50
2017-09-06T01:29:21.033Z,63.60
2017-09-06T01:29:53.549Z,63.60
2017-09-06T01:30:26.085Z,63.70
2017-09-06T01:30:58.590Z,63.70
2017-09-06T01:31:31.107Z,63.60
2017-09-06T01:32:03.649Z,63.50
2017-09-06T01:32:36.187Z,63.50
2017-09-06T01:33:08.719Z,63.60
2017-09-06T01:33:41.250Z,63.60
2017-09-06T01:34:13.782Z,63.60
2017-09-06T01:34:46.299Z,63.50
2017-09-06T01:35:18.823Z,63.50
2017-09-06T01:35:51.357Z,63.40
2017-09-06T01:36:23.884Z,63.40
2017-09-06T01:42:54.844Z,63.60
2017-09-06T01:43:27.355Z,63.70
2017-09-06T01:43:59.915Z,63.70
2017-09-06T01:44:32.448Z,63.60
2017-09-06T01:45:04.977Z,63.70
2017-09-06T01:45:37.501Z,63.70
2017-09-06T01:46:10.017Z,63.80
2017-09-06T01:46:42.537Z,63.80
2017-09-06T01:47:15.079Z,63.80
2017-09-06T01:47:47.598Z,63.90
2017-09-06T01:48:20.130Z,64.00
2017-09-06T01:48:52.675Z,64.00
2017-09-06T01:49:25.190Z,64.00
2017-09-06T01:49:57.689Z,64.00
2017-09-06T01:50:30.265Z,64.00
2017-09-06T01:51:02.776Z,64.00
2017-09-06T01:51:35.286Z,64.30
2017-09-06T01:52:07.808Z,64.00
2017-09-06T01:52:41.120Z,64.10
2017-09-06T01:53:13.629Z,64.00
2017-09-06T01:53:46.150Z,64.00
2017-09-06T01:54:18.691Z,64.00
2017-09-06T01:54:51.207Z,64.70
2017-09-06T01:55:23.730Z,64.80
2017-09-06T01:55:56.247Z,64.00
2017-09-06T01:56:28.776Z,64.00
2017-09-06T01:57:01.302Z,64.00
2017-09-06T01:57:33.830Z,64.00
2017-09-06T01:58:06.361Z,64.00
2017-09-06T01:58:38.890Z,64.00
2017-09-06T01:59:11.416Z,64.70
2017-09-06T01:59:43.939Z,64.00
2017-09-06T02:00:16.455Z,63.80
2017-09-06T02:00:48.963Z,64.00
2017-09-06T02:01:21.491Z,63.20
2017-09-06T02:01:54.054Z,63.20
2017-09-06T02:02:26.573Z,63.30
2017-09-06T02:02:59.090Z,63.40
2017-09-06T02:03:31.619Z,63.40
2017-09-06T02:04:04.141Z,63.40
2017-09-06T02:04:36.684Z,63.30
2017-09-06T02:05:09.202Z,63.40
2017-09-06T02:05:41.729Z,63.50
2017-09-06T02:06:14.251Z,63.60
2017-09-06T02:06:46.780Z,63.70
2017-09-06T02:07:19.318Z,63.80
2017-09-06T02:07:51.859Z,63.80
2017-09-06T02:08:24.407Z,63.90
2017-09-06T02:08:56.954Z,63.80
2017-09-06T02:09:29.467Z,64.00
2017-09-06T02:10:02.022Z,64.20
2017-09-06T02:10:34.551Z,64.20
2017-09-06T02:11:07.080Z,64.00
2017-09-06T02:11:39.610Z,63.80
2017-09-06T02:12:12.142Z,63.90
2017-09-06T02:12:44.680Z,64.00
2017-09-06T02:13:17.203Z,64.10
2017-09-06T02:13:49.812Z,64.20
2017-09-06T02:14:22.337Z,64.10
2017-09-06T02:14:54.862Z,64.00
2017-09-06T02:15:27.399Z,63.80
2017-09-06T02:15:59.918Z,63.60
2017-09-06T02:16:32.448Z,63.50
2017-09-06T02:17:04.974Z,63.40
2017-09-06T02:17:37.521Z,63.20
2017-09-06T02:18:10.058Z,63.20
2017-09-06T02:18:42.570Z,63.30
2017-09-06T02:19:15.115Z,63.40
2017-09-06T02:19:47.661Z,63.40
2017-09-06T02:20:20.208Z,63.50
2017-09-06T02:20:52.739Z,63.50
2017-09-06T02:21:25.250Z,63.60
2017-09-06T02:21:57.789Z,63.70
2017-09-06T02:22:30.324Z,63.60
2017-09-06T02:23:02.862Z,63.50
2017-09-06T02:23:35.379Z,63.70
2017-09-06T02:24:07.885Z,63.80
2017-09-06T02:24:40.398Z,63.90
2017-09-06T02:25:12.910Z,63.90
2017-09-06T02:25:45.453Z,64.00
2017-09-06T02:26:17.982Z,63.80
2017-09-06T02:26:50.511Z,63.80
2017-09-06T02:27:23.032Z,63.90
2017-09-06T02:27:55.583Z,63.70
2017-09-06T02:28:28.118Z,63.70
2017-09-06T02:29:01.393Z,63.70
2017-09-06T02:29:33.902Z,63.70
2017-09-06T02:30:06.435Z,63.70
2017-09-06T02:30:38.957Z,63.80
2017-09-06T02:31:11.466Z,63.90
2017-09-06T02:31:44.023Z,63.90
2017-09-06T02:32:16.530Z,63.70
2017-09-06T02:32:49.040Z,63.50
2017-09-06T02:33:21.551Z,63.50
2017-09-06T02:33:54.080Z,63.40
2017-09-06T02:34:26.612Z,63.30
2017-09-06T02:34:59.138Z,63.40
2017-09-06T02:35:31.662Z,63.50
2017-09-06T02:36:04.179Z,63.40
2017-09-06T02:36:36.694Z,63.20
2017-09-06T02:37:09.239Z,63.10
2017-09-06T02:37:42.531Z,63.10
2017-09-06T02:38:15.050Z,63.10
2017-09-06T02:38:47.635Z,63.10
2017-09-06T02:39:20.156Z,63.10
2017-09-06T02:39:52.692Z,63.10
2017-09-06T02:40:25.210Z,63.10
2017-09-06T02:40:57.731Z,63.10
2017-09-06T02:41:30.255Z,63.20
2017-09-06T02:42:02.784Z,63.20
2017-09-06T02:42:35.570Z,63.40
2017-09-06T02:43:08.088Z,63.60
2017-09-06T02:43:40.628Z,63.50
2017-09-06T02:44:13.157Z,63.50
2017-09-06T02:44:45.676Z,63.70
2017-09-06T02:45:18.217Z,63.70
2017-09-06T02:45:50.765Z,63.90
2017-09-06T02:46:23.293Z,64.20
2017-09-06T02:46:55.821Z,64.30
2017-09-06T02:47:28.328Z,64.20
2017-09-06T02:48:00.861Z,64.20
2017-09-06T02:48:33.399Z,64.30
2017-09-06T02:49:05.914Z,64.40
2017-09-06T02:49:38.423Z,64.50
2017-09-06T02:50:10.956Z,64.50
2017-09-06T02:50:43.504Z,64.70
2017-09-06T02:51:16.056Z,64.70
2017-09-06T02:51:48.593Z,64.70
2017-09-06T02:52:21.195Z,64.80
2017-09-06T02:52:53.736Z,64.80
2017-09-06T02:53:26.295Z,65.00
2017-09-06T02:53:58.822Z,65.00
2017-09-06T02:54:31.339Z,65.20
2017-09-06T02:55:03.882Z,65.20
2017-09-06T02:55:36.400Z,65.80
2017-09-06T02:56:08.919Z,65.00
2017-09-06T02:56:41.431Z,65.10
2017-09-06T02:57:13.943Z,65.10
2017-09-06T02:57:46.447Z,65.20
2017-09-06T02:58:18.972Z,65.20
2017-09-06T02:58:51.503Z,65.20
2017-09-06T02:59:24.018Z,65.20
2017-09-06T02:59:56.551Z,65.20
2017-09-06T03:00:29.078Z,65.20
2017-09-06T03:01:01.604Z,65.10
2017-09-06T03:01:34.142Z,65.10
2017-09-06T03:02:06.671Z,65.00
2017-09-06T03:02:39.221Z,64.90
2017-09-06T03:03:11.753Z,64.90
2017-09-06T03:03:44.278Z,65.00
2017-09-06T03:04:16.811Z,65.10
2017-09-06T03:04:49.350Z,65.20
2017-09-06T03:05:21.878Z,65.20
2017-09-06T03:05:54.413Z,65.20
2017-09-06T03:06:26.952Z,65.20
2017-09-06T03:06:59.489Z,65.20
2017-09-06T03:07:32.004Z,65.40
2017-09-06T03:08:04.556Z,65.40
2017-09-06T03:08:37.079Z,65.30
2017-09-06T03:09:09.607Z,65.30
2017-09-06T03:09:42.138Z,65.40
2017-09-06T03:10:14.684Z,65.30
2017-09-06T03:10:47.208Z,65.30
2017-09-06T03:11:19.728Z,65.40
2017-09-06T03:11:52.275Z,65.30
2017-09-06T03:12:24.810Z,65.20
2017-09-06T03:12:57.383Z,65.50
2017-09-06T03:13:29.923Z,65.50
2017-09-06T03:14:02.463Z,65.70
2017-09-06T03:14:34.986Z,65.70
2017-09-06T03:15:07.522Z,65.70
2017-09-06T03:15:40.061Z,65.70
2017-09-06T03:16:12.599Z,65.70
2017-09-06T03:16:45.132Z,65.60
2017-09-06T03:17:17.661Z,65.60
2017-09-06T03:17:50.181Z,65.60
2017-09-06T03:18:22.702Z,65.60
2017-09-06T03:18:55.232Z,65.60
2017-09-06T03:19:27.829Z,65.80
2017-09-06T03:20:00.340Z,66.00
2017-09-06T03:20:32.892Z,66.00
2017-09-06T03:21:05.414Z,66.10
2017-09-06T03:21:37.942Z,66.20
2017-09-06T03:22:10.484Z,66.20
2017-09-06T03:22:43.010Z,66.20
2017-09-06T03:23:15.531Z,66.30
2017-09-06T03:23:48.063Z,66.30
2017-09-06T03:24:20.641Z,66.40
2017-09-06T03:24:53.157Z,66.30
2017-09-06T03:25:25.701Z,66.40
2017-09-06T03:25:58.241Z,66.50
2017-09-06T03:26:30.803Z,66.50
2017-09-06T03:27:03.321Z,66.50
2017-09-06T03:27:35.861Z,66.70
2017-09-06T03:28:08.396Z,66.70
2017-09-06T03:28:40.925Z,66.60
2017-09-06T03:29:13.448Z,66.70
2017-09-06T03:29:45.978Z,66.70
2017-09-06T03:30:18.498Z,66.70
2017-09-06T03:30:51.013Z,66.70
2017-09-06T03:31:23.563Z,66.70
2017-09-06T03:31:56.103Z,66.70
2017-09-06T03:32:28.645Z,66.70
2017-09-06T03:33:01.178Z,66.70
2017-09-06T03:33:33.730Z,66.70
2017-09-06T03:34:06.259Z,67.40
2017-09-06T03:34:38.830Z,66.70
2017-09-06T03:35:11.364Z,66.70
2017-09-06T03:35:43.908Z,66.60
2017-09-06T03:36:16.439Z,66.60
2017-09-06T03:36:48.991Z,66.60
2017-09-06T03:37:21.511Z,66.50
2017-09-06T03:37:54.052Z,66.50
2017-09-06T03:38:26.599Z,66.60
2017-09-06T03:38:59.114Z,67.40
2017-09-06T03:39:31.641Z,66.80
2017-09-06T03:40:04.172Z,66.80
2017-09-06T03:40:36.735Z,66.90
2017-09-06T03:41:09.242Z,67.60
2017-09-06T03:41:41.754Z,66.80
2017-09-06T03:42:14.311Z,66.90
2017-09-06T03:42:46.830Z,66.90
2017-09-06T03:43:19.608Z,67.00
2017-09-06T03:43:52.961Z,67.00
2017-09-06T03:44:25.701Z,66.90
2017-09-06T03:44:59.009Z,67.00
2017-09-06T03:45:31.798Z,67.10
2017-09-06T03:46:04.352Z,67.00
2017-09-06T03:46:38.820Z,67.00
2017-09-06T03:47:11.358Z,67.10
2017-09-06T03:47:44.219Z,67.10
2017-09-06T03:48:17.047Z,67.20
2017-09-06T04:01:51.305Z,67.30
2017-09-06T04:15:23.891Z,67.80
2017-09-06T04:15:56.400Z,68.00
2017-09-06T04:16:29.304Z,68.10
2017-09-06T04:17:02.341Z,68.90
2017-09-06T04:17:34.879Z,68.30
2017-09-06T04:18:08.366Z,68.40
2017-09-06T04:18:41.322Z,68.40
2017-09-06T04:19:14.182Z,68.50
2017-09-06T04:19:46.714Z,68.60
2017-09-06T04:20:19.582Z,68.60
2017-09-06T04:33:53.110Z,68.70
2017-09-06T04:34:25.691Z,69.50
2017-09-06T04:34:59.054Z,69.70
2017-09-06T04:48:31.686Z,69.90
2017-09-06T04:49:04.555Z,70.50
2017-09-06T04:49:37.221Z,70.50
2017-09-06T04:50:09.875Z,70.50
2017-09-06T04:50:42.433Z,70.70
2017-09-06T04:51:15.294Z,70.50
2017-09-06T04:51:47.801Z,71.10
2017-09-06T04:52:21.256Z,70.40
2017-09-06T05:05:53.889Z,70.30
2017-09-06T05:06:28.073Z,70.80
2017-09-06T05:07:02.065Z,70.40
2017-09-06T05:07:34.661Z,70.50
2017-09-06T05:08:07.960Z,70.70
2017-09-06T05:08:40.986Z,70.70
2017-09-06T05:09:13.500Z,70.80
2017-09-06T05:09:47.039Z,70.90
2017-09-06T05:20:05.559Z,71.00
2017-09-06T05:20:38.085Z,71.40
2017-09-06T05:21:10.613Z,71.50
2017-09-06T05:21:43.398Z,71.50
2017-09-06T05:35:17.117Z,71.60
2017-09-06T05:35:50.716Z,71.50
2017-09-06T05:36:24.354Z,71.50
2017-09-06T05:36:58.039Z,71.70
2017-09-06T05:37:31.898Z,71.90
2017-09-06T05:38:05.501Z,71.90
2017-09-06T05:38:41.064Z,71.90
2017-09-06T05:39:14.757Z,72.10
2017-09-06T05:52:47.421Z,72.20
2017-09-06T05:53:20.304Z,72.10
2017-09-06T05:53:54.125Z,72.30
2017-09-06T05:54:26.657Z,72.30
2017-09-06T05:54:59.579Z,72.20
2017-09-06T05:55:33.957Z,72.30
2017-09-06T05:56:07.322Z,72.30
2017-09-06T05:56:40.832Z,72.30
2017-09-06T05:57:13.378Z,72.30
2017-09-06T05:57:47.122Z,72.40
2017-09-06T05:58:21.374Z,72.60
2017-09-06T05:58:55.988Z,72.60
2017-09-06T05:59:29.740Z,71.90
2017-09-06T06:00:03.635Z,71.90
2017-09-06T06:00:36.148Z,72.00
2017-09-06T06:01:08.683Z,72.00
2017-09-06T06:01:41.275Z,72.10
2017-09-06T06:02:13.819Z,71.80
2017-09-06T06:02:46.669Z,71.80
2017-09-06T06:03:19.574Z,71.70
2017-09-06T06:03:52.117Z,71.80
2017-09-06T06:04:25.464Z,71.90
2017-09-06T06:04:58.158Z,72.00
2017-09-06T06:15:17.237Z,72.00
2017-09-06T06:25:35.131Z,71.80
2017-09-06T06:26:07.749Z,72.30
2017-09-06T06:26:41.268Z,72.40
2017-09-06T06:27:14.988Z,72.30
2017-09-06T06:27:47.525Z,72.20
2017-09-06T06:41:21.179Z,72.30
2017-09-06T06:54:54.470Z,72.00
2017-09-06T07:05:12.611Z,73.30
2017-09-06T07:05:45.179Z,81.20
2017-09-06T07:06:18.113Z,81.60
2017-09-06T07:06:51.473Z,82.10
2017-09-06T07:07:24.120Z,82.20
2017-09-06T07:07:57.583Z,82.60
2017-09-06T07:08:30.999Z,82.80
2017-09-06T07:09:04.453Z,83.00
2017-09-06T07:09:36.980Z,83.50
2017-09-06T07:23:09.955Z,83.90
2017-09-06T07:23:42.930Z,84.50
2017-09-06T07:24:16.870Z,85.40
2017-09-06T07:24:49.803Z,85.40
2017-09-06T07:25:23.628Z,85.70
2017-09-06T07:25:56.494Z,85.90
2017-09-06T07:26:29.043Z,86.10
2017-09-06T07:27:01.798Z,85.90
2017-09-06T07:27:34.543Z,86.10
2017-09-06T07:28:07.299Z,86.10
2017-09-06T07:28:41.068Z,86.10
2017-09-06T07:29:13.598Z,85.90
2017-09-06T07:29:46.128Z,85.70
2017-09-06T07:30:19.163Z,85.90
2017-09-06T07:30:51.716Z,86.10
2017-09-06T07:31:25.204Z,86.10
2017-09-06T07:31:59.747Z,86.30
2017-09-06T07:32:32.579Z,86.40
2017-09-06T07:33:06.728Z,86.20
2017-09-06T07:46:39.338Z,86.30
2017-09-06T07:47:12.273Z,86.40
2017-09-06T07:47:45.229Z,86.90
2017-09-06T07:48:18.190Z,86.10
2017-09-06T07:48:52.701Z,86.40
2017-09-06T07:59:10.662Z,86.80
2017-09-06T07:59:43.177Z,87.50
2017-09-06T08:00:15.968Z,87.40
2017-09-06T08:13:48.919Z,87.80
2017-09-06T08:14:21.463Z,88.00
2017-09-06T08:14:54.316Z,87.80
2017-09-06T08:15:27.528Z,88.10
2017-09-06T08:16:00.828Z,87.80
2017-09-06T08:16:34.988Z,87.60
2017-09-06T08:17:08.389Z,87.40
2017-09-06T08:17:41.239Z,87.50
2017-09-06T08:31:14.652Z,86.90
2017-09-06T08:31:47.616Z,87.90
2017-09-06T08:32:20.124Z,87.70
2017-09-06T08:32:53.184Z,87.50
2017-09-06T08:33:25.768Z,87.60
2017-09-06T08:33:59.380Z,87.90
2017-09-06T08:34:32.667Z,87.30
2017-09-06T08:35:05.216Z,87.20
2017-09-06T08:35:38.022Z,87.30
2017-09-06T08:36:10.552Z,87.80
2017-09-06T08:36:46.110Z,88.00
2017-09-06T08:37:19.609Z,87.90
2017-09-06T08:37:52.770Z,88.00
2017-09-06T08:38:25.596Z,87.80
2017-09-06T08:38:59.065Z,87.30
2017-09-06T08:39:32.872Z,87.00
2017-09-06T08:40:06.631Z,86.70
2017-09-06T08:40:39.367Z,86.70
2017-09-06T08:41:12.178Z,87.20
2017-09-06T08:41:45.613Z,87.60
2017-09-06T08:55:18.186Z,87.90
2017-09-06T08:55:50.750Z,88.10
2017-09-06T08:56:23.944Z,88.40
2017-09-06T08:56:56.857Z,88.80
2017-09-06T08:57:30.725Z,88.90
2017-09-06T08:58:03.239Z,89.10
2017-09-06T08:58:35.787Z,89.10
2017-09-06T08:59:09.546Z,89.20
2017-09-06T09:12:42.645Z,89.50
2017-09-06T09:26:15.667Z,89.10
2017-09-06T09:26:49.380Z,90.00
2017-09-06T09:27:22.240Z,90.00
2017-09-06T09:40:54.826Z,90.10
2017-09-06T09:41:27.742Z,86.50
2017-09-06T09:42:01.842Z,86.10
2017-09-06T09:42:34.676Z,86.10
2017-09-06T09:43:08.182Z,86.20
2017-09-06T09:43:41.722Z,85.90
2017-09-06T09:44:14.808Z,85.60
2017-09-06T09:44:47.344Z,85.40
2017-09-06T09:45:21.432Z,85.70
2017-09-06T09:45:54.388Z,85.90
2017-09-06T09:46:28.049Z,85.00
2017-09-06T09:56:45.691Z,85.00
2017-09-06T09:57:18.547Z,83.10
2017-09-06T09:57:51.195Z,83.20
2017-09-06T09:58:24.426Z,83.50
2017-09-06T10:11:58.055Z,83.40
2017-09-06T10:12:31.189Z,83.40
2017-09-06T10:13:05.191Z,83.50
2017-09-06T10:13:37.932Z,83.50
2017-09-06T10:14:10.450Z,83.60
2017-09-06T10:14:43.782Z,84.00
2017-09-06T10:25:01.351Z,84.30
2017-09-06T10:25:36.307Z,84.10
2017-09-06T10:26:09.677Z,84.20
2017-09-06T10:26:43.305Z,84.40
2017-09-06T10:27:15.832Z,84.80
2017-09-06T10:27:48.673Z,85.20
2017-09-06T10:28:22.613Z,85.20
2017-09-06T10:29:00.118Z,85.20
2017-09-06T10:39:18.030Z,85.50
2017-09-06T10:39:51.003Z,85.60
2017-09-06T10:40:23.919Z,85.90
2017-09-06T10:40:56.441Z,85.80
2017-09-06T10:41:29.746Z,85.80
2017-09-06T10:55:02.630Z,85.60
2017-09-06T10:55:35.179Z,85.00
2017-09-06T10:56:08.103Z,84.90
2017-09-06T10:56:41.611Z,85.00
2017-09-06T10:57:14.960Z,84.90
2017-09-06T10:57:47.853Z,84.60
2017-09-06T11:08:05.890Z,84.70
2017-09-06T11:08:39.025Z,83.80
2017-09-06T11:09:15.752Z,84.10
2017-09-06T11:09:48.330Z,84.00
2017-09-06T11:23:21.004Z,84.10
2017-09-06T11:23:54.916Z,82.10
2017-09-06T11:24:27.730Z,81.90
2017-09-06T11:25:00.941Z,82.30
2017-09-06T11:35:19.430Z,82.50
2017-09-06T11:35:52.264Z,81.20
2017-09-06T11:36:25.924Z,81.30
2017-09-06T11:36:59.384Z,81.10
2017-09-06T11:37:32.390Z,81.00
2017-09-06T11:38:04.917Z,81.10
2017-09-06T11:51:37.532Z,80.90
2017-09-06T11:52:10.030Z,78.70
2017-09-06T12:05:42.966Z,78.90
2017-09-06T12:06:15.503Z,76.30
2017-09-06T12:06:48.272Z,76.90
2017-09-06T12:07:21.589Z,76.40
2017-09-06T12:07:55.802Z,77.00
2017-09-06T12:08:28.681Z,77.00
2017-09-06T12:09:01.482Z,76.30
2017-09-06T12:09:33.995Z,76.50
2017-09-06T12:10:06.516Z,76.60
2017-09-06T12:10:39.086Z,76.70
2017-09-06T12:11:12.145Z,76.90
2017-09-06T12:11:45.074Z,77.20
2017-09-06T12:12:17.870Z,76.70
2017-09-06T12:12:51.275Z,76.70
2017-09-06T12:26:25.804Z,76.90
2017-09-06T12:26:58.315Z,72.10
2017-09-06T12:27:30.840Z,71.50
2017-09-06T12:28:03.776Z,71.20
2017-09-06T12:28:36.627Z,72.10
2017-09-06T12:29:10.406Z,72.60
2017-09-06T12:29:43.275Z,72.60
2017-09-06T12:30:15.848Z,71.10
2017-09-06T12:30:48.923Z,70.10
2017-09-06T12:31:21.469Z,70.30
2017-09-06T12:44:54.403Z,70.80
2017-09-06T12:45:27.204Z,67.60
2017-09-06T12:46:00.109Z,68.00
2017-09-06T12:46:32.960Z,69.30
2017-09-06T12:47:06.128Z,68.00
2017-09-06T12:47:39.790Z,68.40
2017-09-06T12:48:13.050Z,67.50
2017-09-06T12:48:45.567Z,67.50
2017-09-06T12:49:18.130Z,66.40
2017-09-06T12:49:50.651Z,66.20
2017-09-06T13:03:18.577Z,66.60
2017-09-06T13:03:51.940Z,70.90
2017-09-06T13:04:25.173Z,70.40
2017-09-06T13:17:58.042Z,70.50
2017-09-06T13:18:30.963Z,72.30
2017-09-06T13:32:03.806Z,72.40
2017-09-06T13:32:36.340Z,81.20
2017-09-06T13:33:08.847Z,81.30
2017-09-06T13:33:41.371Z,81.50
2017-09-06T13:34:13.910Z,81.60
2017-09-06T13:34:46.423Z,81.60
2017-09-06T13:35:18.943Z,82.00
2017-09-06T13:35:51.477Z,82.30
2017-09-06T13:36:24.003Z,82.40
2017-09-06T13:36:56.529Z,83.00
2017-09-06T13:37:29.866Z,83.30
2017-09-06T13:47:48.184Z,82.00
2017-09-06T13:48:20.802Z,86.60
2017-09-06T13:48:53.358Z,87.10
2017-09-06T13:49:26.184Z,87.60
2017-09-06T13:49:58.839Z,87.80
2017-09-06T13:50:31.526Z,88.00
2017-09-06T13:51:05.812Z,88.20
2017-09-06T14:04:38.650Z,88.40
2017-09-06T14:05:12.593Z,88.60
2017-09-06T14:05:45.495Z,88.70
2017-09-06T14:06:18.900Z,89.10
2017-09-06T14:06:52.878Z,89.40
2017-09-06T14:17:11.075Z,89.60
2017-09-06T14:30:44.650Z,89.20
2017-09-06T14:44:17.263Z,88.40
2017-09-06T14:44:50.238Z,87.30
2017-09-06T14:45:23.159Z,87.60
2017-09-06T14:45:55.737Z,87.60
2017-09-06T14:46:28.778Z,88.20
2017-09-06T14:47:02.106Z,88.60
2017-09-06T14:47:35.012Z,87.60
2017-09-06T14:48:07.930Z,87.60
2017-09-06T14:48:41.929Z,88.40
2017-09-06T14:49:16.770Z,88.50
2017-09-06T14:49:49.317Z,88.20
2017-09-06T14:50:22.268Z,88.50
2017-09-06T14:50:55.278Z,89.10
2017-09-06T14:51:27.842Z,89.00
2017-09-06T14:52:00.399Z,89.30
2017-09-06T14:52:33.825Z,89.40
2017-09-06T14:53:06.350Z,89.60
2017-09-06T14:53:39.215Z,89.20
2017-09-06T14:54:12.705Z,89.40
2017-09-06T14:54:45.212Z,89.70
2017-09-06T14:55:18.028Z,90.00
2017-09-06T14:55:50.552Z,89.40
2017-09-06T14:56:24.239Z,89.10
2017-09-06T14:56:57.509Z,89.60
2017-09-06T14:57:30.810Z,89.70
2017-09-06T14:58:06.008Z,89.80
2017-09-06T14:58:38.571Z,89.50
2017-09-06T15:12:11.187Z,89.30
2017-09-06T15:12:43.718Z,89.80
2017-09-06T15:13:17.310Z,90.00
2017-09-06T15:13:49.851Z,90.10
2017-09-06T15:14:24.005Z,90.00
2017-09-06T15:14:56.857Z,90.00
2017-09-06T15:15:29.768Z,90.20
2017-09-06T15:29:03.600Z,90.20
2017-09-06T15:29:38.134Z,89.50
2017-09-06T15:39:55.722Z,89.80
2017-09-06T15:40:33.699Z,89.60
2017-09-06T15:41:06.287Z,89.00
2017-09-06T15:41:39.180Z,89.10
2017-09-06T15:42:12.042Z,89.00
2017-09-06T15:42:45.251Z,89.40
2017-09-06T15:43:18.149Z,89.20
2017-09-06T15:43:50.699Z,88.90
2017-09-06T15:44:24.007Z,89.10
2017-09-06T15:44:57.824Z,89.10
2017-09-06T15:45:30.842Z,88.50
2017-09-06T15:46:04.503Z,88.90
2017-09-06T15:59:38.150Z,88.90
2017-09-06T16:00:10.704Z,89.30
2017-09-06T16:00:43.229Z,89.40
2017-09-06T16:01:16.126Z,89.70
2017-09-06T16:01:48.688Z,90.10
2017-09-06T16:15:21.619Z,90.30
2017-09-06T16:15:54.267Z,88.90
2017-09-06T16:29:09.708Z,84.50
2017-09-06T16:42:43.197Z,86.40
2017-09-06T16:43:15.744Z,83.40
2017-09-06T16:43:48.909Z,83.00
2017-09-06T16:44:21.476Z,83.40
2017-09-06T16:44:54.005Z,82.30
2017-09-06T16:45:26.655Z,82.90
2017-09-06T16:46:00.226Z,83.40
2017-09-06T16:46:32.806Z,82.20
2017-09-06T16:47:05.379Z,82.80
2017-09-06T16:47:37.912Z,84.50
2017-09-06T16:48:10.471Z,84.30
2017-09-06T16:48:43.085Z,83.90
2017-09-06T16:49:15.610Z,84.20
2017-09-06T16:49:48.168Z,83.20
2017-09-06T16:50:20.703Z,82.80
2017-09-06T16:50:53.245Z,80.80
2017-09-06T16:51:25.792Z,81.00
2017-09-06T16:51:58.327Z,80.80
2017-09-06T16:52:30.863Z,82.80
2017-09-06T16:53:03.415Z,83.20
2017-09-06T16:53:35.977Z,83.70
2017-09-06T16:54:08.510Z,82.10
2017-09-06T16:54:41.027Z,80.60
2017-09-06T16:55:13.577Z,81.70
2017-09-06T16:55:46.125Z,82.20
2017-09-06T16:56:18.651Z,81.60
2017-09-06T16:56:51.193Z,81.40
2017-09-06T16:57:23.729Z,79.00
2017-09-06T16:57:56.254Z,81.30
2017-09-06T16:58:28.773Z,82.30
2017-09-06T16:59:01.297Z,81.10
2017-09-06T16:59:33.831Z,77.90
2017-09-06T17:00:06.365Z,78.10
2017-09-06T17:00:38.895Z,79.60
2017-09-06T17:01:11.429Z,81.30
2017-09-06T17:01:43.974Z,79.80
2017-09-06T17:02:16.515Z,81.20
2017-09-06T17:02:49.072Z,80.60